Terminal Aerodrome Forecast
Issued by NWS

Home | Current Version | Previous Version | Text Only | Print | Product List | Glossary On
Versions: 1 2 3 4 5 6 7 8 9 10 11 12 13 14 15 16 17 18 19 20 21 22 23 24 25 26 27 28
290
FTPQ31 PGUM 300358 AAC
TAFGUM
TAF AMD

TAF AMD
PTRO 300358Z 3004/3024 24012KT P6SM VCSH SCT016 SCT040 BKN120
      TEMPO 3004/3008 -SHRA BKN016 OVC040=

USA.gov is the U.S. government's official web portal to all federal, state and local government web resources and services.